Terminal Aerodrome Forecast
Issued by NWS

Home | Current Version | Previous Version | Text Only | Print | Product List | Glossary On
Versions: 1 2 3 4 5 6 7 8 9 10 11 12 13 14 15 16 17
051
FTUS42 KFFC 262323
TAFRYY
TAF
KRYY 262323Z 2700/2724 00000KT P6SM SCT250
     FM270800 00000KT P6SM BKN150
     FM271400 12007KT P6SM BKN120
     FM271900 14008KT P6SM SCT050 BKN100
     FM272100 13008KT P6SM BKN045 PROB30 2721/2724 5SM SHRA BKN035
      AMD NOT SKED 2704/2712=

USA.gov is the U.S. government's official web portal to all federal, state and local government web resources and services.